createdAt,value
2023-04-13T00:00:54.274Z,1.10
2023-04-13T00:03:43.884Z,1.10
2023-04-13T00:06:20.929Z,1.20
2023-04-13T00:08:53.376Z,1.30
2023-04-13T00:11:24.232Z,1.47
2023-04-13T00:13:55.789Z,1.00
2023-04-13T00:16:27.236Z,0.90
2023-04-13T00:19:04.620Z,1.40
2023-04-13T00:21:41.842Z,1.67
2023-04-13T00:24:17.072Z,1.70
2023-04-13T00:26:48.706Z,1.27
2023-04-13T00:29:29.359Z,1.10
2023-04-13T00:31:57.944Z,1.17
2023-04-13T00:34:43.602Z,0.93
2023-04-13T00:37:16.601Z,1.60
2023-04-13T00:39:48.074Z,1.00
2023-04-13T00:42:19.363Z,1.17
2023-04-13T00:44:52.007Z,1.13
2023-04-13T00:47:33.099Z,1.00
2023-04-13T00:50:11.541Z,1.20
2023-04-13T00:52:49.244Z,1.33
2023-04-13T00:55:21.271Z,1.30
2023-04-13T00:57:58.523Z,1.17
2023-04-13T01:00:31.711Z,1.10
2023-04-13T01:03:05.293Z,1.20
2023-04-13T01:05:53.708Z,1.30
2023-04-13T01:08:37.688Z,1.40
2023-04-13T01:11:21.178Z,1.27
2023-04-13T01:14:02.673Z,1.87
2023-04-13T01:16:53.181Z,1.47
2023-04-13T01:19:32.270Z,1.20
2023-04-13T01:22:18.349Z,1.80
2023-04-13T01:25:07.313Z,1.20
2023-04-13T01:27:59.084Z,1.67
2023-04-13T01:30:32.584Z,1.90
2023-04-13T01:33:12.325Z,1.57
2023-04-13T01:35:48.809Z,1.70
2023-04-13T01:38:28.464Z,1.40
2023-04-13T01:41:17.395Z,1.33
2023-04-13T01:43:51.729Z,1.70
2023-04-13T01:46:33.560Z,1.53
2023-04-13T01:49:30.445Z,1.70
2023-04-13T01:52:35.227Z,1.33
2023-04-13T01:55:13.411Z,1.30
2023-04-13T01:57:53.188Z,1.40
2023-04-13T02:00:40.790Z,1.90
2023-04-13T02:03:30.062Z,1.30
2023-04-13T02:06:00.697Z,1.60
2023-04-13T02:08:43.898Z,1.43
2023-04-13T02:11:21.829Z,1.40
2023-04-13T02:14:00.372Z,1.40
2023-04-13T02:16:46.708Z,1.37
2023-04-13T02:19:23.769Z,1.30
2023-04-13T02:22:00.803Z,1.30
2023-04-13T02:24:40.464Z,1.10
2023-04-13T02:27:12.860Z,1.20
2023-04-13T02:29:42.912Z,1.40
2023-04-13T02:32:23.464Z,1.50
2023-04-13T02:34:54.288Z,1.20
2023-04-13T02:37:24.756Z,1.30
2023-04-13T02:39:53.364Z,0.97
2023-04-13T02:42:35.438Z,1.30
2023-04-13T02:45:14.851Z,1.43
2023-04-13T02:47:52.462Z,1.17
2023-04-13T02:50:21.777Z,1.50
2023-04-13T02:53:11.920Z,1.23
2023-04-13T02:55:47.824Z,1.10
2023-04-13T02:58:22.480Z,1.20
2023-04-13T03:01:01.853Z,1.40
2023-04-13T03:03:48.733Z,1.27
2023-04-13T03:06:29.147Z,1.43
2023-04-13T03:09:11.645Z,1.70
2023-04-13T03:12:03.732Z,1.50
2023-04-13T03:14:36.765Z,1.30
2023-04-13T03:17:16.704Z,1.20
2023-04-13T03:19:54.236Z,1.33
2023-04-13T03:22:33.354Z,1.40
2023-04-13T03:25:10.814Z,1.10
2023-04-13T03:27:42.963Z,1.60
2023-04-13T03:30:20.922Z,1.10
2023-04-13T03:33:07.246Z,1.30
2023-04-13T03:35:51.188Z,1.00
2023-04-13T03:38:38.419Z,1.10
2023-04-13T03:41:11.092Z,1.60
2023-04-13T03:43:50.557Z,1.03
2023-04-13T03:46:25.146Z,1.20
2023-04-13T03:49:01.474Z,1.03
2023-04-13T03:51:43.882Z,1.30
2023-04-13T03:54:19.031Z,1.40
2023-04-13T03:56:55.898Z,1.20
2023-04-13T03:59:37.349Z,1.50
2023-04-13T04:02:16.086Z,1.70
2023-04-13T04:04:55.803Z,1.30
2023-04-13T04:07:40.696Z,1.13
2023-04-13T04:10:25.708Z,1.57
2023-04-13T04:13:00.687Z,1.23
2023-04-13T04:15:36.943Z,1.20
2023-04-13T04:18:21.617Z,0.97
2023-04-13T04:21:02.278Z,1.10
2023-04-13T04:23:44.530Z,1.30
2023-04-13T04:26:17.424Z,1.10
2023-04-13T04:29:02.931Z,1.00
2023-04-13T04:31:46.015Z,1.30
2023-04-13T04:34:24.418Z,1.53
2023-04-13T04:37:03.225Z,1.70
2023-04-13T04:39:55.525Z,1.23
2023-04-13T04:42:31.131Z,1.30
2023-04-13T04:45:05.936Z,1.30
2023-04-13T04:47:46.388Z,1.30
2023-04-13T04:50:23.281Z,1.43
2023-04-13T04:53:05.048Z,1.37
2023-04-13T04:55:46.706Z,1.33
2023-04-13T04:58:43.106Z,1.47
2023-04-13T05:01:25.366Z,0.97
2023-04-13T05:04:05.948Z,1.13
2023-04-13T05:06:41.805Z,1.40
2023-04-13T05:09:20.745Z,1.40
2023-04-13T05:12:12.284Z,1.47
2023-04-13T05:14:51.419Z,1.30
2023-04-13T05:17:32.922Z,2.07
2023-04-13T05:20:07.402Z,1.20
2023-04-13T05:22:59.656Z,1.50
2023-04-13T05:25:43.270Z,1.30
2023-04-13T05:28:37.565Z,1.73
2023-04-13T05:31:13.527Z,1.30
2023-04-13T05:33:55.733Z,2.00
2023-04-13T05:36:34.653Z,1.67
2023-04-13T05:39:19.922Z,1.50
2023-04-13T05:42:01.526Z,1.27
2023-04-13T05:44:50.357Z,1.13
2023-04-13T05:47:28.318Z,1.27
2023-04-13T05:50:09.972Z,1.47
2023-04-13T05:52:47.119Z,1.80
2023-04-13T05:55:27.006Z,1.83
2023-04-13T05:58:07.314Z,1.10
2023-04-13T06:00:45.613Z,1.50
2023-04-13T06:03:32.251Z,1.93
2023-04-13T06:06:12.317Z,1.43
2023-04-13T06:08:42.638Z,1.60
2023-04-13T06:11:15.976Z,1.73
2023-04-13T06:14:00.228Z,1.50
2023-04-13T06:16:38.734Z,1.77
2023-04-13T06:19:18.045Z,2.40
2023-04-13T06:21:59.411Z,1.60
2023-04-13T06:24:40.981Z,2.20
2023-04-13T06:27:16.299Z,2.30
2023-04-13T06:29:51.445Z,2.03
2023-04-13T06:32:29.632Z,2.20
2023-04-13T06:35:06.359Z,2.10
2023-04-13T06:37:55.679Z,2.10
2023-04-13T06:40:36.881Z,1.60
2023-04-13T06:43:26.465Z,1.90
2023-04-13T06:46:19.584Z,1.77
2023-04-13T06:49:07.025Z,2.47
2023-04-13T06:51:42.809Z,2.30
2023-04-13T06:54:16.678Z,1.67
2023-04-13T06:56:55.800Z,2.03
2023-04-13T06:59:41.407Z,2.97
2023-04-13T07:02:19.140Z,2.30
2023-04-13T07:05:07.661Z,1.70
2023-04-13T07:07:43.602Z,1.90
2023-04-13T07:10:31.211Z,2.07
2023-04-13T07:13:12.025Z,2.23
2023-04-13T07:15:52.016Z,2.60
2023-04-13T07:18:28.942Z,1.93
2023-04-13T07:21:03.192Z,2.07
2023-04-13T07:23:47.833Z,1.90
2023-04-13T07:26:25.714Z,2.23
2023-04-13T07:28:54.620Z,2.30
2023-04-13T07:31:39.893Z,2.47
2023-04-13T07:34:20.865Z,2.00
2023-04-13T07:37:01.057Z,2.57
2023-04-13T07:39:40.700Z,2.13
2023-04-13T07:42:17.436Z,3.47
2023-04-13T07:44:55.901Z,1.50
2023-04-13T07:47:30.090Z,2.10
2023-04-13T07:50:07.241Z,2.07
2023-04-13T07:52:55.418Z,2.30
2023-04-13T07:55:31.915Z,2.63
2023-04-13T07:58:24.053Z,2.40
2023-04-13T08:01:01.870Z,2.30
2023-04-13T08:03:34.651Z,2.20
2023-04-13T08:06:26.285Z,2.80
2023-04-13T08:09:11.537Z,1.80
2023-04-13T08:11:48.737Z,2.70
2023-04-13T08:14:24.784Z,2.50
2023-04-13T08:17:08.463Z,2.30
2023-04-13T08:19:43.166Z,2.23
2023-04-13T08:22:19.349Z,2.30
2023-04-13T08:25:04.739Z,11.37
2023-04-13T08:27:43.543Z,3.60
2023-04-13T08:30:17.493Z,2.67
2023-04-13T08:33:07.770Z,2.50
2023-04-13T08:35:42.936Z,2.20
2023-04-13T08:38:21.269Z,1.60
2023-04-13T08:41:00.598Z,2.70
2023-04-13T08:43:46.995Z,2.20
2023-04-13T08:46:33.400Z,2.53
2023-04-13T08:49:10.087Z,1.83
2023-04-13T08:52:03.963Z,1.37
2023-04-13T08:54:38.100Z,1.30
2023-04-13T08:57:17.676Z,1.47
2023-04-13T08:59:50.821Z,1.63
2023-04-13T09:02:28.250Z,1.70
2023-04-13T09:05:16.917Z,1.40
2023-04-13T09:08:14.500Z,1.70
2023-04-13T09:11:16.593Z,1.67
2023-04-13T09:14:01.783Z,1.90
2023-04-13T09:16:45.224Z,1.47
2023-04-13T09:19:40.586Z,1.70
2023-04-13T09:22:17.976Z,1.70
2023-04-13T09:24:51.725Z,1.43
2023-04-13T09:27:28.696Z,1.57
2023-04-13T09:30:14.994Z,1.57
2023-04-13T09:32:52.904Z,1.13
2023-04-13T09:35:35.110Z,1.40
2023-04-13T09:38:11.193Z,1.60
2023-04-13T09:40:57.251Z,1.53
2023-04-13T09:43:43.806Z,1.27
2023-04-13T09:46:30.377Z,1.70
2023-04-13T09:49:03.618Z,1.60
2023-04-13T09:51:42.618Z,1.23
2023-04-13T09:54:23.097Z,1.40
2023-04-13T09:57:00.460Z,1.80
2023-04-13T09:59:33.765Z,1.23
2023-04-13T10:02:14.553Z,1.60
2023-04-13T10:04:46.022Z,1.50
2023-04-13T10:07:20.366Z,1.83
2023-04-13T10:09:57.723Z,1.30
2023-04-13T10:12:37.902Z,1.30
2023-04-13T10:15:25.333Z,1.70
2023-04-13T10:18:16.468Z,1.47
2023-04-13T10:20:49.168Z,1.50
2023-04-13T10:23:29.300Z,1.23
2023-04-13T10:26:03.627Z,1.40
2023-04-13T10:28:43.625Z,1.47
2023-04-13T10:31:24.200Z,1.40
2023-04-13T10:33:55.326Z,1.80
2023-04-13T10:36:41.480Z,1.40
2023-04-13T10:39:11.953Z,1.50
2023-04-13T10:41:46.710Z,1.73
2023-04-13T10:44:23.469Z,1.70
2023-04-13T10:46:57.054Z,1.50
2023-04-13T10:49:49.963Z,1.43
2023-04-13T10:52:29.049Z,1.57
2023-04-13T10:55:05.420Z,1.93
2023-04-13T10:57:47.655Z,1.60
2023-04-13T11:00:31.849Z,1.63
2023-04-13T11:03:18.130Z,1.20
2023-04-13T11:05:59.864Z,1.50
2023-04-13T11:08:39.013Z,2.17
2023-04-13T11:11:15.135Z,1.20
2023-04-13T11:13:56.303Z,1.60
2023-04-13T11:16:27.135Z,1.30
2023-04-13T11:19:05.384Z,1.67
2023-04-13T11:21:40.601Z,1.67
2023-04-13T11:24:10.644Z,0.93
2023-04-13T11:26:43.371Z,1.60
2023-04-13T11:29:26.234Z,1.77
2023-04-13T11:32:00.779Z,1.70
2023-04-13T11:34:40.569Z,1.30
2023-04-13T11:37:11.693Z,2.10
2023-04-13T11:39:49.136Z,1.60
2023-04-13T11:42:22.988Z,1.80
2023-04-13T11:44:56.911Z,2.13
2023-04-13T11:47:30.280Z,1.80
2023-04-13T11:50:01.926Z,1.40
2023-04-13T11:52:37.949Z,1.60
2023-04-13T11:55:22.285Z,1.90
2023-04-13T11:57:55.752Z,1.90
2023-04-13T12:00:28.173Z,1.80
2023-04-13T12:05:33.050Z,1.90
2023-04-13T12:08:27.012Z,1.60
2023-04-13T12:14:06.613Z,1.73
2023-04-13T12:19:30.390Z,1.30
2023-04-13T12:22:12.024Z,2.03
2023-04-13T12:24:49.340Z,1.90
2023-04-13T12:27:25.418Z,2.10
2023-04-13T12:30:04.746Z,1.63
2023-04-13T12:32:38.273Z,1.50
2023-04-13T12:35:22.050Z,1.50
2023-04-13T12:37:59.967Z,1.70
2023-04-13T12:40:38.487Z,1.83
2023-04-13T12:43:15.584Z,1.60
2023-04-13T12:45:48.017Z,1.37
2023-04-13T12:48:27.242Z,1.30
2023-04-13T12:50:58.498Z,1.43
2023-04-13T12:53:27.880Z,1.20
2023-04-13T12:56:03.315Z,0.90
2023-04-13T12:58:38.789Z,1.30
2023-04-13T13:01:23.435Z,1.30
2023-04-13T13:03:59.442Z,1.73
2023-04-13T13:06:33.276Z,1.40
2023-04-13T13:09:08.733Z,1.20
2023-04-13T13:11:44.013Z,1.30
2023-04-13T13:14:25.961Z,1.27
2023-04-13T13:17:00.134Z,1.27
2023-04-13T13:19:30.016Z,1.60
2023-04-13T13:22:08.142Z,1.50
2023-04-13T13:24:41.938Z,1.50
2023-04-13T13:30:04.913Z,1.37
2023-04-13T13:32:38.353Z,0.90
2023-04-13T13:35:10.562Z,1.30
2023-04-13T13:37:44.196Z,1.70
2023-04-13T13:40:25.194Z,1.47
2023-04-13T13:43:03.705Z,0.90
2023-04-13T13:45:40.187Z,1.07
2023-04-13T13:48:09.084Z,1.60
2023-04-13T13:50:59.605Z,1.10
2023-04-13T13:53:32.394Z,1.10
2023-04-13T13:56:15.348Z,1.20
2023-04-13T13:58:47.371Z,1.47
2023-04-13T14:01:28.453Z,1.10
2023-04-13T14:04:02.749Z,1.40
2023-04-13T14:06:38.299Z,0.90
2023-04-13T14:09:22.840Z,1.20
2023-04-13T14:11:53.662Z,1.30
2023-04-13T14:14:33.067Z,1.53
2023-04-13T14:17:06.336Z,1.60
2023-04-13T14:19:42.707Z,1.30
2023-04-13T14:22:15.773Z,1.10
2023-04-13T14:24:46.553Z,1.20
2023-04-13T14:27:21.738Z,0.83
2023-04-13T14:30:04.111Z,0.70
2023-04-13T14:32:41.794Z,1.57
2023-04-13T14:35:20.616Z,0.73
2023-04-13T14:38:00.590Z,0.90
2023-04-13T14:40:34.810Z,1.20
2023-04-13T14:43:15.099Z,1.30
2023-04-13T14:45:52.361Z,1.20
2023-04-13T14:48:27.228Z,1.30
2023-04-13T14:51:01.472Z,1.00
2023-04-13T14:53:39.145Z,0.90
2023-04-13T14:56:18.491Z,0.90
2023-04-13T14:58:49.075Z,1.10
2023-04-13T15:01:30.452Z,1.50
2023-04-13T15:04:10.515Z,0.80
2023-04-13T15:06:51.927Z,0.87
2023-04-13T15:09:32.064Z,1.50
2023-04-13T15:12:11.710Z,1.90
2023-04-13T15:14:49.055Z,1.27
2023-04-13T15:17:26.908Z,1.30
2023-04-13T15:19:59.804Z,1.60
2023-04-13T15:22:38.695Z,1.40
2023-04-13T15:25:18.646Z,1.10
2023-04-13T15:27:55.741Z,2.20
2023-04-13T15:30:28.334Z,4.03
2023-04-13T15:33:08.593Z,1.83
2023-04-13T15:35:43.120Z,1.97
2023-04-13T15:38:22.800Z,5.93
2023-04-13T15:41:02.814Z,11.60
2023-04-13T15:43:36.441Z,5.43
2023-04-13T15:46:12.397Z,1.40
2023-04-13T15:48:54.088Z,1.10
2023-04-13T15:51:26.625Z,2.23
2023-04-13T15:53:57.933Z,1.13
2023-04-13T15:56:28.526Z,1.20
2023-04-13T15:59:00.633Z,0.70
2023-04-13T16:01:44.693Z,1.07
2023-04-13T16:04:21.335Z,0.80
2023-04-13T16:09:35.916Z,0.63
2023-04-13T16:12:16.151Z,0.97
2023-04-13T16:14:50.523Z,1.70
2023-04-13T16:17:27.209Z,1.07
2023-04-13T16:20:09.955Z,0.90
2023-04-13T16:22:44.179Z,0.60
2023-04-13T16:25:18.854Z,0.90
2023-04-13T16:28:04.954Z,0.90
2023-04-13T16:30:40.505Z,0.73
2023-04-13T16:33:11.062Z,0.90
2023-04-13T16:35:59.161Z,0.73
2023-04-13T16:38:34.245Z,0.70
2023-04-13T16:41:07.737Z,1.00
2023-04-13T16:43:42.273Z,1.20
2023-04-13T16:46:20.380Z,0.93
2023-04-13T16:48:53.958Z,0.80
2023-04-13T16:51:29.883Z,0.90
2023-04-13T16:54:03.763Z,0.90
2023-04-13T16:56:37.148Z,1.30
2023-04-13T16:59:14.137Z,0.83
2023-04-13T17:01:53.082Z,1.00
2023-04-13T17:04:30.946Z,1.10
2023-04-13T17:07:08.110Z,2.30
2023-04-13T17:09:38.997Z,2.23
2023-04-13T17:12:16.987Z,1.70
2023-04-13T17:14:57.878Z,8.33
2023-04-13T17:17:37.952Z,8.50
2023-04-13T17:20:14.156Z,2.70
2023-04-13T17:22:57.417Z,3.00
2023-04-13T17:25:32.109Z,4.20
2023-04-13T17:28:04.571Z,5.17
2023-04-13T17:30:39.200Z,4.70
2023-04-13T17:33:12.804Z,4.80
2023-04-13T17:35:48.671Z,2.50
2023-04-13T17:38:30.133Z,1.40
2023-04-13T17:41:00.971Z,1.67
2023-04-13T17:43:38.151Z,1.10
2023-04-13T17:46:10.732Z,1.40
2023-04-13T17:48:40.467Z,2.97
2023-04-13T17:51:16.423Z,2.40
2023-04-13T17:53:54.510Z,2.47
2023-04-13T17:56:29.272Z,1.90
2023-04-13T17:59:02.614Z,1.90
2023-04-13T18:01:43.949Z,3.23
2023-04-13T18:04:17.739Z,3.40
2023-04-13T18:06:55.753Z,3.77
2023-04-13T18:09:33.924Z,8.70
2023-04-13T18:12:09.134Z,3.83
2023-04-13T18:14:44.785Z,2.43
2023-04-13T18:17:18.312Z,2.00
2023-04-13T18:19:52.859Z,1.50
2023-04-13T18:22:26.954Z,1.20
2023-04-13T18:25:16.378Z,1.20
2023-04-13T18:27:56.088Z,1.70
2023-04-13T18:30:28.736Z,1.37
2023-04-13T18:33:06.280Z,1.30
2023-04-13T18:35:45.941Z,1.00
2023-04-13T18:38:23.459Z,1.07
2023-04-13T18:41:01.149Z,1.27
2023-04-13T18:43:41.435Z,1.00
2023-04-13T18:46:13.260Z,1.20
2023-04-13T18:48:44.643Z,1.53
2023-04-13T18:51:25.778Z,1.50
2023-04-13T18:53:59.424Z,2.50
2023-04-13T18:56:31.294Z,3.47
2023-04-13T18:59:10.837Z,3.80
2023-04-13T19:01:46.072Z,8.97
2023-04-13T19:04:19.622Z,36.70
2023-04-13T19:06:53.135Z,8.80
2023-04-13T19:09:26.479Z,3.80
2023-04-13T19:12:05.319Z,3.13
2023-04-13T19:14:38.987Z,5.27
2023-04-13T19:17:10.480Z,12.70
2023-04-13T19:19:41.555Z,7.90
2023-04-13T19:22:12.615Z,5.37
2023-04-13T19:24:51.659Z,5.00
2023-04-13T19:27:27.092Z,4.80
2023-04-13T19:30:03.729Z,4.53
2023-04-13T19:32:39.105Z,5.40
2023-04-13T19:35:11.066Z,5.30
2023-04-13T19:37:49.768Z,5.47
2023-04-13T19:40:29.650Z,6.30
2023-04-13T19:43:07.684Z,5.40
2023-04-13T19:45:41.645Z,3.90
2023-04-13T19:48:18.302Z,2.53
2023-04-13T19:50:51.812Z,2.20
2023-04-13T19:53:32.922Z,2.07
2023-04-13T19:56:01.479Z,1.80
2023-04-13T19:58:38.278Z,1.80
2023-04-13T20:01:11.414Z,1.77
2023-04-13T20:03:45.474Z,3.27
2023-04-13T20:06:19.853Z,3.00
2023-04-13T20:08:51.482Z,3.10
2023-04-13T20:11:24.816Z,3.43
2023-04-13T20:14:14.144Z,12.30
2023-04-13T20:16:53.869Z,7.30
2023-04-13T20:19:29.713Z,7.53
2023-04-13T20:22:02.163Z,8.70
2023-04-13T20:24:44.653Z,5.90
2023-04-13T20:27:17.252Z,4.93
2023-04-13T20:29:58.057Z,9.07
2023-04-13T20:32:29.292Z,11.40
2023-04-13T20:35:06.047Z,4.50
2023-04-13T20:37:40.368Z,3.80
2023-04-13T20:40:27.412Z,5.93
2023-04-13T20:43:06.286Z,8.37
2023-04-13T20:45:49.504Z,6.07
2023-04-13T20:51:01.687Z,4.20
2023-04-13T20:53:34.542Z,5.13
2023-04-13T20:56:14.629Z,5.50
2023-04-13T20:58:43.531Z,3.83
2023-04-13T21:01:23.967Z,4.63
2023-04-13T21:04:01.439Z,5.87
2023-04-13T21:06:37.416Z,7.87
2023-04-13T21:09:11.973Z,5.43
2023-04-13T21:11:47.666Z,4.90
2023-04-13T21:14:27.243Z,3.40
2023-04-13T21:17:14.251Z,3.37
2023-04-13T21:19:49.150Z,4.00
2023-04-13T21:22:25.427Z,4.50
2023-04-13T21:24:58.560Z,5.80
2023-04-13T21:27:35.273Z,4.17
2023-04-13T21:30:05.812Z,4.47
2023-04-13T21:32:41.388Z,3.90
2023-04-13T21:35:18.246Z,3.95
2023-04-13T21:37:54.127Z,3.90
2023-04-13T21:40:34.588Z,6.00
2023-04-13T21:43:10.896Z,11.90
2023-04-13T21:45:42.407Z,10.43
2023-04-13T21:48:31.134Z,8.00
2023-04-13T21:51:04.234Z,8.23
2023-04-13T21:53:44.158Z,6.78
2023-04-13T21:56:22.272Z,6.65
2023-04-13T21:58:50.617Z,5.82
2023-04-13T22:01:49.788Z,5.20
2023-04-13T22:04:37.127Z,5.87
2023-04-13T22:07:11.229Z,6.17
2023-04-13T22:09:42.728Z,7.57
2023-04-13T22:12:18.440Z,7.37
2023-04-13T22:14:59.993Z,5.43
2023-04-13T22:17:32.810Z,5.53
2023-04-13T22:20:14.458Z,6.10
2023-04-13T22:22:48.235Z,5.13
2023-04-13T22:25:32.362Z,6.55
2023-04-13T22:28:14.728Z,6.17
2023-04-13T22:30:54.880Z,5.40
2023-04-13T22:33:32.038Z,6.10
2023-04-13T22:36:05.889Z,4.32
2023-04-13T22:38:40.315Z,4.35
2023-04-13T22:41:19.802Z,4.95
2023-04-13T22:43:54.045Z,4.50
2023-04-13T22:46:25.632Z,5.32
2023-04-13T22:48:58.047Z,4.68
2023-04-13T22:51:46.202Z,5.60
2023-04-13T22:54:20.740Z,4.70
2023-04-13T22:56:56.210Z,5.30
2023-04-13T22:59:35.470Z,5.17
2023-04-13T23:02:13.483Z,6.18
2023-04-13T23:04:58.368Z,5.85
2023-04-13T23:07:37.368Z,12.40
2023-04-13T23:10:17.014Z,12.50
2023-04-13T23:12:57.198Z,8.27
2023-04-13T23:15:31.896Z,7.68
2023-04-13T23:18:05.234Z,7.18
2023-04-13T23:20:47.853Z,6.50
2023-04-13T23:23:26.733Z,5.75
2023-04-13T23:26:01.331Z,6.13
2023-04-13T23:28:41.711Z,5.45
2023-04-13T23:31:18.234Z,6.18
2023-04-13T23:33:54.880Z,6.57
2023-04-13T23:36:27.308Z,6.80
2023-04-13T23:39:13.747Z,7.43
2023-04-13T23:41:50.244Z,6.40
2023-04-13T23:44:33.493Z,10.55
2023-04-13T23:47:04.240Z,9.53
2023-04-13T23:49:35.464Z,7.18
2023-04-13T23:52:14.193Z,5.97
2023-04-13T23:55:01.257Z,4.72
2023-04-13T23:57:34.886Z,4.90
